createdAt,value
2023-04-24T00:01:20.539Z,7.34
2023-04-24T00:04:28.805Z,7.33
2023-04-24T00:07:35.186Z,7.15
2023-04-24T00:10:41.474Z,7.27
2023-04-24T00:13:47.749Z,7.36
2023-04-24T00:16:54.430Z,7.28
2023-04-24T00:20:03.008Z,7.03
2023-04-24T00:23:09.444Z,7.35
2023-04-24T00:26:15.954Z,7.35
2023-04-24T00:29:22.420Z,7.54
2023-04-24T00:32:28.913Z,7.42
2023-04-24T00:35:36.279Z,7.44
2023-04-24T00:38:42.451Z,7.26
2023-04-24T00:41:49.216Z,7.09
2023-04-24T00:44:55.757Z,6.52
2023-04-24T00:48:02.968Z,6.51
2023-04-24T00:51:10.497Z,6.68
2023-04-24T00:54:16.648Z,7.14
2023-04-24T00:57:24.751Z,7.33
2023-04-24T01:00:31.379Z,7.50
2023-04-24T01:03:39.430Z,7.55
2023-04-24T01:06:47.888Z,7.72
2023-04-24T01:09:54.029Z,7.25
2023-04-24T01:13:00.874Z,7.36
2023-04-24T01:16:07.650Z,7.77
2023-04-24T01:19:15.355Z,7.70
2023-04-24T01:22:23.138Z,7.49
2023-04-24T01:25:30.365Z,7.11
2023-04-24T01:28:37.001Z,7.14
2023-04-24T01:31:43.736Z,7.39
2023-04-24T01:34:51.463Z,7.67
2023-04-24T01:37:59.338Z,7.53
2023-04-24T01:41:06.647Z,7.51
2023-04-24T01:44:13.126Z,7.30
2023-04-24T01:47:19.593Z,6.84
2023-04-24T01:50:26.322Z,6.12
2023-04-24T01:53:33.871Z,6.44
2023-04-24T01:56:44.050Z,6.70
2023-04-24T01:59:50.088Z,7.17
2023-04-24T02:02:56.650Z,7.10
2023-04-24T02:06:03.014Z,7.00
2023-04-24T02:09:11.905Z,6.98
2023-04-24T02:12:18.590Z,7.31
2023-04-24T02:15:25.107Z,7.48
2023-04-24T02:18:31.419Z,7.22
2023-04-24T02:21:37.644Z,7.35
2023-04-24T02:24:45.634Z,7.51
2023-04-24T02:27:52.213Z,7.41
2023-04-24T02:30:58.441Z,7.09
2023-04-24T02:34:04.554Z,7.15
2023-04-24T02:37:10.890Z,7.38
2023-04-24T02:40:18.840Z,7.18
2023-04-24T02:43:25.436Z,7.08
2023-04-24T02:46:31.683Z,7.15
2023-04-24T02:49:37.878Z,7.05
2023-04-24T02:52:44.033Z,6.81
2023-04-24T02:55:51.785Z,6.23
2023-04-24T02:58:58.018Z,6.56
2023-04-24T03:02:04.141Z,6.32
2023-04-24T03:05:13.065Z,6.69
2023-04-24T03:08:19.811Z,6.27
2023-04-24T03:11:27.419Z,6.12
2023-04-24T03:14:33.831Z,6.85
2023-04-24T03:17:40.401Z,7.14
2023-04-24T03:20:48.401Z,6.97
2023-04-24T03:23:55.070Z,6.37
2023-04-24T03:27:02.580Z,6.55
2023-04-24T03:30:10.108Z,6.41
2023-04-24T03:33:16.227Z,6.68
2023-04-24T03:36:22.538Z,6.88
2023-04-24T03:39:28.616Z,6.65
2023-04-24T03:42:38.012Z,6.09
2023-04-24T03:45:45.468Z,6.21
2023-04-24T03:48:51.689Z,6.10
2023-04-24T03:51:58.050Z,6.21
2023-04-24T03:55:04.143Z,6.14
2023-04-24T03:58:12.294Z,6.10
2023-04-24T04:01:20.113Z,6.68
2023-04-24T04:04:26.510Z,7.08
2023-04-24T04:07:32.710Z,7.13
2023-04-24T04:10:38.925Z,7.52
2023-04-24T04:13:46.806Z,7.65
2023-04-24T04:16:55.010Z,7.92
2023-04-24T04:20:02.120Z,7.79
2023-04-24T04:23:08.352Z,7.25
2023-04-24T04:26:14.795Z,7.86
2023-04-24T04:29:23.716Z,8.28
2023-04-24T04:32:30.208Z,7.06
2023-04-24T04:35:37.520Z,7.08
2023-04-24T04:38:44.191Z,6.93
2023-04-24T04:41:51.502Z,7.04
2023-04-24T04:44:59.444Z,7.43
2023-04-24T04:48:07.126Z,7.47
2023-04-24T04:51:14.047Z,8.14
2023-04-24T04:54:20.547Z,8.72
2023-04-24T04:57:27.108Z,8.85
2023-04-24T05:00:36.938Z,8.32
2023-04-24T05:03:43.274Z,7.76
2023-04-24T05:06:49.622Z,7.91
2023-04-24T05:09:55.974Z,8.38
2023-04-24T05:13:02.154Z,8.72
2023-04-24T05:16:09.981Z,8.56
2023-04-24T05:19:17.974Z,8.73
2023-04-24T05:22:25.056Z,9.04
2023-04-24T05:25:33.248Z,9.67
2023-04-24T05:28:39.657Z,9.49
2023-04-24T05:31:47.827Z,9.99
2023-04-24T05:34:54.600Z,10.39
2023-04-24T05:38:00.794Z,9.75
2023-04-24T05:41:07.179Z,9.65
2023-04-24T05:44:13.370Z,10.31
2023-04-24T05:47:22.850Z,10.56
2023-04-24T05:50:28.920Z,10.75
2023-04-24T05:53:35.212Z,11.14
2023-04-24T05:56:43.151Z,11.17
2023-04-24T05:59:49.787Z,10.90
2023-04-24T06:02:57.760Z,10.89
2023-04-24T06:06:04.210Z,10.80
2023-04-24T06:09:10.226Z,11.44
2023-04-24T06:12:16.340Z,10.27
2023-04-24T06:15:22.641Z,10.75
2023-04-24T06:18:30.244Z,10.96
2023-04-24T06:21:36.499Z,11.96
2023-04-24T06:24:43.015Z,13.18
2023-04-24T06:27:49.332Z,12.88
2023-04-24T06:30:55.866Z,12.55
2023-04-24T06:34:04.009Z,12.65
2023-04-24T06:37:10.597Z,12.95
2023-04-24T06:40:16.913Z,13.06
2023-04-24T06:43:23.325Z,13.61
2023-04-24T06:46:29.929Z,13.26
2023-04-24T06:49:37.709Z,13.52
2023-04-24T06:52:44.242Z,12.98
2023-04-24T06:55:50.581Z,13.51
2023-04-24T06:58:57.308Z,12.85
2023-04-24T07:02:04.098Z,13.97
2023-04-24T07:05:12.952Z,14.16
2023-04-24T07:08:19.425Z,14.52
2023-04-24T07:11:30.473Z,14.78
2023-04-24T07:14:36.969Z,14.57
2023-04-24T07:17:45.509Z,13.85
2023-04-24T07:20:53.503Z,14.68
2023-04-24T07:24:00.183Z,14.88
2023-04-24T07:27:06.977Z,14.52
2023-04-24T07:30:14.143Z,15.68
2023-04-24T07:33:20.563Z,15.22
2023-04-24T07:36:29.153Z,15.26
2023-04-24T07:39:35.606Z,15.74
2023-04-24T07:42:42.620Z,14.96
2023-04-24T07:45:49.589Z,14.98
2023-04-24T07:49:11.723Z,15.89
2023-04-24T07:52:20.948Z,15.76
2023-04-24T07:55:28.255Z,15.35
2023-04-24T07:58:35.173Z,16.43
2023-04-24T08:01:41.355Z,16.88
2023-04-24T08:04:47.703Z,16.27
2023-04-24T08:07:55.559Z,16.59
2023-04-24T08:11:01.600Z,16.70
2023-04-24T08:14:07.584Z,16.91
2023-04-24T08:17:13.896Z,17.31
2023-04-24T08:20:20.478Z,17.30
2023-04-24T08:23:28.447Z,17.55
2023-04-24T08:26:34.978Z,17.05
2023-04-24T08:29:41.606Z,18.64
2023-04-24T08:32:48.517Z,19.67
2023-04-24T08:35:55.762Z,19.99
2023-04-24T08:39:03.361Z,19.34
2023-04-24T08:42:10.924Z,19.79
2023-04-24T08:45:17.390Z,20.55
2023-04-24T08:48:31.255Z,20.04
2023-04-24T08:51:39.959Z,20.64
2023-04-24T08:54:48.520Z,20.43
2023-04-24T08:57:55.694Z,19.82
2023-04-24T09:01:03.040Z,20.54
2023-04-24T09:04:12.017Z,20.63
2023-04-24T09:07:20.285Z,20.82
2023-04-24T09:10:29.260Z,21.24
2023-04-24T09:13:36.416Z,20.80
2023-04-24T09:16:42.725Z,21.42
2023-04-24T09:19:48.973Z,21.06
2023-04-24T09:22:57.328Z,21.22
2023-04-24T09:26:07.136Z,19.99
2023-04-24T09:29:18.020Z,20.87
2023-04-24T09:32:26.919Z,19.39
2023-04-24T09:35:34.693Z,19.47
2023-04-24T09:38:41.228Z,21.38
2023-04-24T09:41:50.440Z,21.48
2023-04-24T09:45:04.473Z,22.03
2023-04-24T09:48:18.545Z,18.91
2023-04-24T09:51:36.407Z,20.57
2023-04-24T09:54:42.535Z,18.47
2023-04-24T09:57:55.674Z,18.76
2023-04-24T10:01:02.045Z,19.92
2023-04-24T10:04:08.409Z,21.30
2023-04-24T10:07:17.456Z,20.84
2023-04-24T10:10:25.050Z,20.94
2023-04-24T10:13:33.551Z,22.22
2023-04-24T10:16:40.512Z,22.57
2023-04-24T10:19:48.190Z,23.32
2023-04-24T10:22:55.943Z,23.26
2023-04-24T10:26:03.332Z,22.59
2023-04-24T10:29:13.667Z,22.32
2023-04-24T10:32:20.156Z,22.94
2023-04-24T10:35:27.935Z,23.01
2023-04-24T10:52:03.518Z,22.32
2023-04-24T10:55:10.347Z,22.58
2023-04-24T10:58:17.929Z,23.45
2023-04-24T11:01:28.675Z,21.80
2023-04-24T11:04:36.441Z,22.94
2023-04-24T11:08:14.704Z,23.58
2023-04-24T11:11:22.839Z,23.60
2023-04-24T11:14:29.221Z,23.43
2023-04-24T11:17:38.789Z,23.77
2023-04-24T11:20:46.053Z,23.15
2023-04-24T11:23:54.174Z,24.12
2023-04-24T11:27:02.792Z,23.75
2023-04-24T11:30:10.640Z,24.06
2023-04-24T11:33:22.688Z,22.26
2023-04-24T11:36:28.831Z,23.64
2023-04-24T11:39:40.331Z,22.76
2023-04-24T11:42:47.749Z,22.67
2023-04-24T11:45:54.064Z,21.79
2023-04-24T11:49:01.442Z,21.58
2023-04-24T11:52:07.586Z,20.82
2023-04-24T11:55:28.465Z,21.20
2023-04-24T11:58:37.473Z,20.58
2023-04-24T12:01:47.429Z,20.95
2023-04-24T12:04:54.457Z,20.16
2023-04-24T12:08:01.421Z,20.37
2023-04-24T12:11:09.870Z,21.54
2023-04-24T12:14:16.069Z,21.37
2023-04-24T12:17:29.181Z,21.74
2023-04-24T12:20:36.005Z,22.02
2023-04-24T12:23:45.814Z,21.77
2023-04-24T12:26:54.716Z,22.25
2023-04-24T12:30:01.848Z,21.20
2023-04-24T12:33:08.479Z,23.06
2023-04-24T12:36:14.964Z,23.89
2023-04-24T12:39:24.763Z,24.02
2023-04-24T12:42:33.110Z,23.33
2023-04-24T12:45:39.470Z,22.39
2023-04-24T12:48:45.822Z,21.71
2023-04-24T12:51:52.243Z,21.76
2023-04-24T12:54:59.839Z,22.08
2023-04-24T12:58:07.934Z,21.42
2023-04-24T13:01:14.600Z,21.83
2023-04-24T13:04:21.436Z,22.49
2023-04-24T13:07:28.158Z,22.02
2023-04-24T13:10:34.643Z,23.25
2023-04-24T13:13:42.902Z,22.63
2023-04-24T13:16:49.715Z,21.47
2023-04-24T13:19:57.348Z,21.51
2023-04-24T13:23:03.952Z,21.54
2023-04-24T13:26:10.333Z,22.75
2023-04-24T13:29:18.059Z,22.83
2023-04-24T13:32:27.972Z,23.15
2023-04-24T13:35:34.665Z,23.09
2023-04-24T13:38:40.885Z,23.85
2023-04-24T13:41:48.954Z,24.09
2023-04-24T13:44:56.611Z,24.03
2023-04-24T13:48:04.218Z,24.06
2023-04-24T13:51:10.791Z,24.04
2023-04-24T13:54:17.357Z,23.10
2023-04-24T13:57:23.592Z,22.20
2023-04-24T14:00:31.095Z,23.02
2023-04-24T14:03:40.175Z,22.69
2023-04-24T14:06:46.918Z,23.60
2023-04-24T14:09:55.772Z,23.26
2023-04-24T14:13:02.228Z,22.98
2023-04-24T14:16:10.293Z,22.06
2023-04-24T14:19:16.682Z,21.63
2023-04-24T14:22:22.882Z,21.50
2023-04-24T14:25:29.286Z,21.74
2023-04-24T14:28:35.849Z,22.38
2023-04-24T14:31:43.945Z,22.99
2023-04-24T14:34:50.612Z,23.28
2023-04-24T14:37:57.288Z,23.54
2023-04-24T14:41:13.170Z,23.42
2023-04-24T14:44:20.841Z,23.08
2023-04-24T14:47:28.438Z,22.95
2023-04-24T14:50:34.885Z,22.80
2023-04-24T14:53:41.760Z,23.20
2023-04-24T14:56:48.156Z,23.05
2023-04-24T14:59:54.869Z,22.14
2023-04-24T15:03:03.391Z,20.98
2023-04-24T15:06:09.893Z,20.98
2023-04-24T15:09:16.373Z,19.62
2023-04-24T15:12:23.440Z,20.06
2023-04-24T15:15:29.887Z,19.57
2023-04-24T15:18:37.557Z,19.28
2023-04-24T15:21:45.579Z,19.46
2023-04-24T15:24:52.193Z,19.73
2023-04-24T15:27:59.757Z,19.05
2023-04-24T15:31:06.190Z,19.70
2023-04-24T15:34:13.752Z,18.83
2023-04-24T15:37:19.941Z,19.04
2023-04-24T15:40:26.433Z,18.37
2023-04-24T15:43:35.299Z,18.17
2023-04-24T15:46:41.888Z,18.48
2023-04-24T15:49:50.007Z,18.44
2023-04-24T15:52:56.681Z,18.49
2023-04-24T15:56:03.520Z,18.25
2023-04-24T15:59:10.144Z,17.96
2023-04-24T16:02:19.380Z,17.71
2023-04-24T16:05:27.834Z,17.46
2023-04-24T16:08:34.278Z,17.58
2023-04-24T16:11:40.980Z,17.25
2023-04-24T16:14:47.395Z,17.14
2023-04-24T16:17:54.175Z,17.10
2023-04-24T16:21:02.551Z,16.79
2023-04-24T16:24:09.498Z,16.60
2023-04-24T16:27:16.601Z,16.73
2023-04-24T16:30:23.814Z,16.61
2023-04-24T16:33:31.963Z,16.68
2023-04-24T16:36:40.661Z,16.67
2023-04-24T16:39:48.001Z,16.32
2023-04-24T16:42:55.363Z,16.54
2023-04-24T16:46:02.439Z,16.36
2023-04-24T16:49:09.692Z,16.44
2023-04-24T16:52:18.268Z,16.23
2023-04-24T16:55:25.638Z,16.10
2023-04-24T16:58:32.980Z,16.06
2023-04-24T17:01:40.137Z,15.91
2023-04-24T17:04:48.417Z,15.97
2023-04-24T17:07:57.323Z,16.06
2023-04-24T17:11:04.374Z,15.98
2023-04-24T17:14:11.469Z,15.79
2023-04-24T17:17:20.447Z,15.80
2023-04-24T17:20:29.766Z,15.52
2023-04-24T17:23:53.440Z,15.81
2023-04-24T17:27:08.062Z,15.62
2023-04-24T17:30:34.081Z,15.63
2023-04-24T17:33:41.258Z,15.35
2023-04-24T17:36:48.515Z,15.23
2023-04-24T17:39:56.995Z,15.13
2023-04-24T17:43:03.180Z,15.27
2023-04-24T17:46:09.594Z,15.46
2023-04-24T17:49:16.216Z,15.30
2023-04-24T17:52:22.913Z,15.43
2023-04-24T17:55:30.728Z,14.93
2023-04-24T17:58:37.600Z,15.00
2023-04-24T18:01:44.015Z,14.98
2023-04-24T18:04:51.734Z,14.93
2023-04-24T18:08:00.360Z,14.66
2023-04-24T18:11:08.453Z,14.64
2023-04-24T18:14:15.153Z,14.56
2023-04-24T18:17:21.780Z,14.76
2023-04-24T18:20:28.524Z,14.67
2023-04-24T18:23:35.524Z,14.84
2023-04-24T18:26:43.321Z,14.99
2023-04-24T18:29:49.824Z,14.89
2023-04-24T18:32:56.118Z,14.92
2023-04-24T18:36:03.716Z,15.13
2023-04-24T18:39:09.769Z,14.94
2023-04-24T18:42:17.831Z,15.04
2023-04-24T18:45:23.906Z,14.89
2023-04-24T18:48:31.316Z,14.70
2023-04-24T18:51:50.212Z,14.84
2023-04-24T18:54:59.566Z,14.58
2023-04-24T18:58:07.699Z,14.52
2023-04-24T19:01:14.269Z,14.65
2023-04-24T19:04:20.976Z,13.14
2023-04-24T19:07:27.349Z,12.98
2023-04-24T19:10:34.517Z,12.98
2023-04-24T19:13:42.422Z,12.48
2023-04-24T19:16:49.129Z,11.93
2023-04-24T19:19:55.672Z,11.92
2023-04-24T19:23:02.401Z,11.55
2023-04-24T19:26:09.093Z,11.68
2023-04-24T19:29:16.803Z,11.85
2023-04-24T19:32:23.603Z,12.04
2023-04-24T19:35:30.617Z,12.13
2023-04-24T19:38:36.842Z,12.07
2023-04-24T19:41:43.000Z,12.22
2023-04-24T19:44:50.738Z,11.74
2023-04-24T19:47:57.243Z,11.82
2023-04-24T19:51:04.464Z,12.05
2023-04-24T19:54:10.637Z,11.95
2023-04-24T19:57:16.902Z,11.47
2023-04-24T20:00:24.655Z,11.49
2023-04-24T20:03:33.936Z,11.48
2023-04-24T20:06:40.592Z,11.60
2023-04-24T20:09:46.750Z,11.50
2023-04-24T20:12:53.082Z,11.53
2023-04-24T20:16:01.084Z,11.53
2023-04-24T20:19:08.186Z,11.59
2023-04-24T20:22:14.989Z,11.42
2023-04-24T20:25:21.534Z,11.44
2023-04-24T20:28:28.438Z,11.44
2023-04-24T20:31:36.430Z,11.69
2023-04-24T20:34:42.727Z,11.47
2023-04-24T20:37:49.229Z,11.45
2023-04-24T20:40:58.090Z,11.61
2023-04-24T20:44:06.451Z,11.61
2023-04-24T20:47:14.301Z,11.53
2023-04-24T20:50:20.585Z,11.56
2023-04-24T20:53:27.041Z,11.53
2023-04-24T20:56:33.224Z,11.49
2023-04-24T20:59:40.913Z,11.57
2023-04-24T21:02:49.054Z,11.46
2023-04-24T21:05:55.716Z,11.49
2023-04-24T21:09:02.155Z,11.31
2023-04-24T21:12:09.257Z,11.46
2023-04-24T21:15:15.859Z,11.23
2023-04-24T21:18:23.826Z,11.52
2023-04-24T21:21:29.996Z,11.39
2023-04-24T21:24:36.907Z,11.34
2023-04-24T21:27:43.671Z,11.51
2023-04-24T21:30:50.164Z,11.16
2023-04-24T21:33:57.584Z,11.36
2023-04-24T21:37:03.850Z,11.25
2023-04-24T21:40:12.405Z,11.27
2023-04-24T21:43:20.593Z,11.19
2023-04-24T21:46:31.101Z,11.25
2023-04-24T21:49:38.879Z,11.12
2023-04-24T21:52:45.111Z,11.15
2023-04-24T21:55:51.623Z,11.32
2023-04-24T21:58:58.361Z,11.38
2023-04-24T22:02:05.010Z,11.41
2023-04-24T22:05:15.803Z,11.51
2023-04-24T22:08:22.270Z,11.29
2023-04-24T22:11:28.765Z,11.19
2023-04-24T22:14:35.120Z,11.55
2023-04-24T22:17:41.439Z,11.25
2023-04-24T22:20:48.957Z,11.58
2023-04-24T22:23:55.470Z,11.17
2023-04-24T22:27:02.474Z,11.47
2023-04-24T22:30:10.379Z,11.35
2023-04-24T22:33:16.843Z,11.45
2023-04-24T22:36:24.217Z,11.49
2023-04-24T22:39:30.118Z,11.43
2023-04-24T22:42:36.737Z,11.52
2023-04-24T22:45:43.039Z,11.34
2023-04-24T22:48:49.393Z,11.61
2023-04-24T22:51:57.874Z,11.58
2023-04-24T22:55:03.987Z,11.47
2023-04-24T22:58:10.573Z,11.46
2023-04-24T23:01:17.571Z,11.28
2023-04-24T23:04:24.082Z,11.43
2023-04-24T23:07:31.833Z,11.56
2023-04-24T23:10:38.368Z,11.52
2023-04-24T23:13:44.957Z,11.52
2023-04-24T23:16:51.414Z,11.37
2023-04-24T23:19:57.579Z,11.37
2023-04-24T23:23:05.438Z,11.11
2023-04-24T23:26:11.637Z,11.18
2023-04-24T23:29:17.868Z,11.29
2023-04-24T23:32:24.345Z,11.16
2023-04-24T23:35:31.009Z,11.15
2023-04-24T23:38:47.061Z,11.26
2023-04-24T23:41:56.262Z,11.09
2023-04-24T23:45:02.350Z,11.00
2023-04-24T23:48:08.635Z,11.08
2023-04-24T23:51:14.923Z,10.95
2023-04-24T23:54:22.684Z,10.71
2023-04-24T23:57:29.707Z,10.80
